Time;durP1;ratioP1;P1;durP2;ratioP2;P2;SDS_P1;SDS_P2;PMS_P1;PMS_P2;Temp;Humidity;BMP_temperature;BMP_pressure;BME280_temperature;BME280_humidity;BME280_pressure;Samples;Min_cycle;Max_cycle;Signal;HPM_P1;HPM_P2
2021/09/05 00:02:05;;;;;;;16.60;7.78;;;28.30;91.80;;;;;;5043109;28;20021;-50
2021/09/05 00:04:31;;;;;;;19.35;8.88;;;28.30;91.80;;;;;;5043500;28;20317;-53
2021/09/05 00:06:58;;;;;;;18.35;8.88;;;28.30;91.80;;;;;;5042218;28;20206;-47
2021/09/05 00:09:25;;;;;;;24.58;9.82;;;28.30;91.70;;;;;;5043678;28;20022;-48
2021/09/05 00:11:51;;;;;;;15.38;7.28;;;28.30;91.70;;;;;;5043344;28;20083;-51
2021/09/05 00:14:18;;;;;;;15.10;7.05;;;28.30;91.70;;;;;;5043607;28;20205;-50
2021/09/05 00:16:45;;;;;;;15.90;7.40;;;28.30;91.70;;;;;;5042913;28;20045;-52
2021/09/05 00:19:12;;;;;;;17.42;7.57;;;28.30;91.80;;;;;;5044028;28;20025;-49
2021/09/05 00:21:38;;;;;;;11.93;6.50;;;28.30;91.60;;;;;;5043322;28;20085;-50
2021/09/05 00:24:05;;;;;;;14.00;5.55;;;28.30;91.60;;;;;;5043151;28;20040;-47
2021/09/05 00:26:32;;;;;;;10.82;4.88;;;28.30;91.50;;;;;;5046705;28;20018;-47
2021/09/05 00:28:59;;;;;;;9.95;3.97;;;28.20;91.70;;;;;;5046603;28;20052;-44
2021/09/05 00:31:26;;;;;;;6.65;3.40;;;28.20;91.50;;;;;;5046440;28;20388;-45
2021/09/05 00:33:53;;;;;;;8.18;3.40;;;28.10;91.40;;;;;;5045707;28;20033;-50
2021/09/05 00:36:19;;;;;;;7.80;3.80;;;28.00;91.40;;;;;;5046483;28;20218;-45
2021/09/05 00:38:46;;;;;;;11.52;3.63;;;28.00;91.40;;;;;;5045960;28;20372;-47
2021/09/05 00:41:12;;;;;;;6.45;3.63;;;28.00;91.30;;;;;;5044466;28;20022;-47
2021/09/05 00:44:11;;;;;;;8.60;4.13;;;28.10;91.40;;;;;;5045990;28;20064;-52
2021/09/05 00:46:39;;;;;;;17.17;11.85;;;28.10;91.10;;;;;;5023538;28;20083;-48
2021/09/05 00:49:08;;;;;;;12.10;6.35;;;28.10;91.10;;;;;;5046773;28;20025;-49
2021/09/05 00:51:40;;;;;;;9.88;6.68;;;28.10;90.80;;;;;;5046158;28;20240;-52
2021/09/05 00:54:08;;;;;;;18.20;6.30;;;28.10;90.80;;;;;;5046794;28;20306;-53
2021/09/05 00:56:38;;;;;;;11.50;5.70;;;28.10;90.70;;;;;;5046269;28;20026;-50
2021/09/05 00:59:12;;;;;;;7.65;5.43;;;28.10;90.60;;;;;;5046626;28;20216;-47
2021/09/05 01:01:40;;;;;;;8.68;4.65;;;28.10;90.60;;;;;;5046171;28;20033;-48
2021/09/05 01:04:07;;;;;;;19.88;5.80;;;28.10;90.60;;;;;;5046413;28;20036;-50
2021/09/05 01:06:35;;;;;;;24.50;5.22;;;28.10;90.70;;;;;;5044915;28;20021;-47
2021/09/05 01:09:05;;;;;;;10.80;4.50;;;28.10;90.70;;;;;;5046504;28;20028;-51
2021/09/05 01:11:32;;;;;;;12.70;4.45;;;28.10;90.70;;;;;;5044825;28;20068;-52
2021/09/05 01:14:02;;;;;;;11.68;4.53;;;28.10;90.70;;;;;;5046353;28;20254;-52
2021/09/05 01:16:33;;;;;;;11.20;4.15;;;28.10;90.60;;;;;;5045813;28;20045;-56
2021/09/05 01:19:08;;;;;;;13.40;3.67;;;28.00;90.50;;;;;;5046123;28;20021;-51
2021/09/05 01:21:35;;;;;;;6.60;3.85;;;28.00;90.50;;;;;;5044857;28;20416;-52
2021/09/05 01:24:03;;;;;;;9.98;3.70;;;28.00;90.60;;;;;;5045908;28;20038;-51
2021/09/05 01:26:32;;;;;;;16.10;3.55;;;28.00;90.50;;;;;;5045651;28;20023;-50
2021/09/05 01:29:00;;;;;;;7.97;3.38;;;28.00;90.50;;;;;;5046074;28;20341;-51
2021/09/05 01:31:35;;;;;;;6.75;3.38;;;28.00;90.40;;;;;;5045408;28;20025;-55
2021/09/05 01:34:02;;;;;;;10.88;3.45;;;28.00;90.30;;;;;;5046021;28;20033;-51
2021/09/05 01:36:29;;;;;;;8.82;3.45;;;28.00;90.30;;;;;;5045194;28;20025;-56
2021/09/05 01:38:55;;;;;;;6.75;3.30;;;28.00;90.20;;;;;;5045787;28;20029;-51
2021/09/05 01:41:22;;;;;;;8.95;3.55;;;28.00;90.10;;;;;;5045538;28;20048;-52
2021/09/05 01:43:49;;;;;;;9.20;3.33;;;28.00;90.10;;;;;;5045926;28;20092;-50
2021/09/05 01:46:15;;;;;;;7.05;3.17;;;28.00;90.10;;;;;;5045168;28;20020;-51
2021/09/05 01:48:42;;;;;;;8.75;2.90;;;27.90;90.10;;;;;;5045728;28;20032;-46
2021/09/05 01:51:09;;;;;;;6.38;3.40;;;27.90;90.00;;;;;;5045402;28;20296;-49
2021/09/05 01:53:36;;;;;;;7.55;3.50;;;27.90;90.00;;;;;;5045396;28;20320;-47
2021/09/05 01:56:02;;;;;;;12.27;3.70;;;27.90;90.00;;;;;;5045256;28;20397;-55
2021/09/05 01:58:29;;;;;;;6.53;3.35;;;27.90;90.10;;;;;;5045402;28;20029;-48
2021/09/05 02:00:55;;;;;;;5.40;2.90;;;27.90;90.10;;;;;;5044915;28;20127;-49
2021/09/05 02:03:22;;;;;;;7.60;3.25;;;27.90;90.10;;;;;;5045205;28;20032;-55
2021/09/05 02:05:49;;;;;;;6.25;3.20;;;27.90;90.00;;;;;;5044826;28;20024;-51
2021/09/05 02:08:15;;;;;;;5.57;3.25;;;27.90;90.00;;;;;;5045081;28;20041;-53
2021/09/05 02:10:42;;;;;;;10.30;3.05;;;27.90;90.00;;;;;;5044892;28;20022;-47
2021/09/05 02:13:08;;;;;;;6.85;3.20;;;27.90;90.00;;;;;;5044861;28;20025;-50
2021/09/05 02:15:35;;;;;;;4.95;2.88;;;27.80;90.00;;;;;;5044576;28;20072;-52
2021/09/05 02:18:03;;;;;;;10.15;3.47;;;27.80;90.00;;;;;;5044982;28;20039;-51
2021/09/05 02:20:30;;;;;;;5.72;3.10;;;27.80;89.90;;;;;;5044758;28;20025;-50
2021/09/05 02:22:57;;;;;;;5.28;3.35;;;27.80;90.00;;;;;;5044790;28;20040;-50
2021/09/05 02:25:23;;;;;;;6.70;3.38;;;27.90;90.00;;;;;;5044601;28;20033;-49
2021/09/05 02:27:50;;;;;;;6.80;3.40;;;27.90;90.00;;;;;;5043675;28;20215;-56
2021/09/05 02:30:16;;;;;;;7.93;3.75;;;27.80;90.10;;;;;;5044501;28;20068;-52
2021/09/05 02:32:44;;;;;;;8.13;3.70;;;27.80;90.00;;;;;;5044501;28;20127;-52
2021/09/05 02:35:11;;;;;;;6.28;3.78;;;27.80;90.00;;;;;;5044465;28;20017;-50
2021/09/05 02:37:38;;;;;;;7.88;3.90;;;27.80;90.00;;;;;;5044451;28;20032;-50
2021/09/05 02:40:09;;;;;;;9.35;3.70;;;27.80;89.90;;;;;;5044280;28;20025;-45
2021/09/05 02:42:36;;;;;;;4.43;3.55;;;27.90;90.00;;;;;;5044343;28;20032;-51
2021/09/05 02:45:05;;;;;;;7.22;3.95;;;27.80;90.00;;;;;;5044050;28;20267;-52
2021/09/05 02:47:32;;;;;;;7.53;4.00;;;27.80;90.00;;;;;;5043662;28;20025;-51
2021/09/05 02:49:59;;;;;;;13.10;4.13;;;27.80;90.00;;;;;;5044214;28;20205;-53
2021/09/05 02:52:26;;;;;;;7.63;3.67;;;27.80;90.10;;;;;;5043971;28;20097;-47
2021/09/05 02:54:53;;;;;;;5.18;3.45;;;27.80;90.00;;;;;;5044173;28;20017;-46
2021/09/05 02:57:19;;;;;;;7.38;3.53;;;27.80;90.00;;;;;;5043988;28;20018;-46
2021/09/05 02:59:46;;;;;;;8.80;4.72;;;27.80;90.00;;;;;;5044015;28;20092;-47
2021/09/05 03:02:13;;;;;;;21.40;10.50;;;27.80;90.00;;;;;;5044009;28;20049;-54
2021/09/05 03:04:39;;;;;;;17.85;12.02;;;27.80;90.10;;;;;;5043965;28;20244;-48
2021/09/05 03:07:06;;;;;;;16.38;9.77;;;27.80;90.10;;;;;;5043848;28;20023;-52
2021/09/05 03:09:33;;;;;;;16.60;9.02;;;27.80;90.10;;;;;;5043906;28;20021;-52
2021/09/05 03:12:00;;;;;;;15.90;8.90;;;27.70;90.10;;;;;;5043865;28;20044;-49
2021/09/05 03:14:27;;;;;;;20.77;8.60;;;27.80;90.10;;;;;;5044370;28;20080;-48
2021/09/05 03:16:53;;;;;;;14.00;9.65;;;27.70;90.00;;;;;;5043635;28;20049;-49
2021/09/05 03:19:22;;;;;;;17.05;10.23;;;27.80;90.10;;;;;;5044228;28;20133;-46
2021/09/05 03:21:50;;;;;;;17.88;12.20;;;27.70;90.10;;;;;;5043808;28;20013;-50
2021/09/05 03:24:17;;;;;;;18.25;10.82;;;27.70;90.00;;;;;;5044137;28;20021;-49
2021/09/05 03:26:43;;;;;;;19.42;8.90;;;27.70;90.00;;;;;;5043695;28;20023;-46
2021/09/05 03:29:10;;;;;;;17.33;7.78;;;27.70;90.20;;;;;;5044141;28;20033;-53
2021/09/05 03:31:37;;;;;;;14.45;6.55;;;27.70;90.20;;;;;;5043531;28;20024;-47
2021/09/05 03:34:04;;;;;;;12.27;7.07;;;27.70;90.20;;;;;;5044142;28;20029;-53
2021/09/05 03:36:30;;;;;;;15.35;6.40;;;27.70;90.20;;;;;;5043733;28;20096;-51
2021/09/05 03:38:57;;;;;;;13.60;5.40;;;27.60;90.20;;;;;;5043923;28;20032;-58
2021/09/05 03:41:23;;;;;;;12.52;5.28;;;27.70;90.20;;;;;;5043648;28;20136;-50
2021/09/05 03:43:50;;;;;;;7.75;5.47;;;27.70;90.20;;;;;;5043997;28;20029;-51
2021/09/05 03:46:17;;;;;;;9.52;5.05;;;27.70;90.20;;;;;;5043385;28;20021;-50
2021/09/05 03:48:43;;;;;;;12.95;5.22;;;27.70;90.20;;;;;;5044110;28;20049;-55
2021/09/05 03:51:10;;;;;;;7.55;4.90;;;27.70;90.20;;;;;;5043584;28;20378;-50
2021/09/05 03:53:36;;;;;;;13.32;5.47;;;27.60;90.30;;;;;;5043712;28;20071;-55
2021/09/05 03:56:03;;;;;;;8.98;5.95;;;27.70;90.30;;;;;;5043456;28;20024;-52
2021/09/05 03:58:30;;;;;;;17.63;7.85;;;27.60;90.30;;;;;;5044440;28;20033;-46
2021/09/05 04:00:57;;;;;;;15.20;8.57;;;27.60;90.30;;;;;;5047196;28;20017;-51
2021/09/05 04:03:24;;;;;;;14.20;8.55;;;27.60;90.30;;;;;;5047489;28;20045;-47
2021/09/05 04:05:50;;;;;;;19.10;10.45;;;27.60;90.30;;;;;;5047117;28;20092;-46
2021/09/05 04:08:17;;;;;;;25.17;12.18;;;27.60;90.20;;;;;;5047297;28;20061;-46
2021/09/05 04:10:44;;;;;;;39.47;12.65;;;27.60;90.10;;;;;;5047131;28;20024;-50
2021/09/05 04:13:11;;;;;;;25.10;14.50;;;27.60;90.10;;;;;;5047320;28;20029;-48
2021/09/05 04:15:38;;;;;;;17.05;13.40;;;27.60;90.00;;;;;;5046679;28;20053;-48
2021/09/05 04:18:05;;;;;;;22.60;12.45;;;27.60;90.00;;;;;;5047270;28;20041;-53
2021/09/05 04:20:32;;;;;;;20.50;13.65;;;27.60;89.90;;;;;;5047037;28;20025;-52
2021/09/05 04:22:59;;;;;;;25.27;16.27;;;27.60;90.00;;;;;;5047279;28;20201;-48
2021/09/05 04:25:26;;;;;;;28.40;16.45;;;27.60;90.00;;;;;;5046785;28;20376;-55
2021/09/05 04:27:53;;;;;;;22.20;16.42;;;27.60;90.10;;;;;;5047099;28;20029;-48
2021/09/05 04:30:20;;;;;;;23.70;14.73;;;27.60;90.00;;;;;;5046830;28;20017;-53
2021/09/05 04:32:47;;;;;;;21.42;12.55;;;27.60;90.00;;;;;;5047064;28;20356;-48
2021/09/05 04:35:14;;;;;;;20.50;13.05;;;27.50;90.00;;;;;;5047108;28;20040;-48
2021/09/05 04:37:41;;;;;;;22.52;15.02;;;27.50;90.20;;;;;;5046682;28;20049;-52
2021/09/05 04:40:08;;;;;;;24.30;15.07;;;27.50;90.20;;;;;;5045514;28;20029;-55
2021/09/05 04:42:36;;;;;;;19.98;13.63;;;27.50;90.20;;;;;;5046518;28;20084;-49
2021/09/05 04:45:03;;;;;;;22.48;11.68;;;27.50;90.10;;;;;;5046322;28;20041;-51
2021/09/05 04:47:30;;;;;;;16.20;10.55;;;27.50;90.00;;;;;;5046467;28;20022;-54
2021/09/05 04:49:56;;;;;;;17.65;10.48;;;27.50;90.00;;;;;;5046606;28;20028;-53
2021/09/05 04:52:23;;;;;;;20.63;10.15;;;27.50;90.00;;;;;;5046352;28;20013;-54
2021/09/05 04:54:50;;;;;;;15.93;8.93;;;27.50;90.00;;;;;;5046540;28;20030;-46
2021/09/05 04:57:16;;;;;;;18.10;7.88;;;27.50;89.80;;;;;;5046299;28;20025;-53
2021/09/05 04:59:43;;;;;;;10.25;7.22;;;27.50;89.70;;;;;;5045106;28;20022;-51
2021/09/05 05:02:09;;;;;;;14.15;7.65;;;27.50;89.90;;;;;;5046412;28;20041;-55
2021/09/05 05:04:36;;;;;;;12.77;8.18;;;27.40;90.00;;;;;;5046087;28;20233;-52
2021/09/05 05:07:03;;;;;;;10.77;6.90;;;27.40;90.10;;;;;;5046160;28;20019;-47
2021/09/05 05:09:29;;;;;;;10.20;6.35;;;27.40;90.10;;;;;;5045967;28;20025;-47
2021/09/05 05:11:56;;;;;;;7.75;5.18;;;27.40;90.10;;;;;;5045289;28;20032;-55
2021/09/05 05:14:23;;;;;;;10.00;5.30;;;27.40;90.00;;;;;;5046014;28;20060;-55
2021/09/05 05:16:50;;;;;;;8.15;4.63;;;27.40;89.90;;;;;;5045718;28;20053;-51
2021/09/05 05:19:17;;;;;;;7.28;4.20;;;27.40;89.90;;;;;;5045851;28;20206;-46
2021/09/05 05:21:43;;;;;;;10.27;4.25;;;27.40;89.70;;;;;;5045873;28;20080;-50
2021/09/05 05:24:10;;;;;;;6.93;4.03;;;27.40;89.80;;;;;;5045686;28;20025;-52
2021/09/05 05:26:36;;;;;;;10.05;5.53;;;27.40;89.70;;;;;;5044577;28;20321;-53
2021/09/05 05:29:03;;;;;;;11.20;6.10;;;27.40;89.60;;;;;;5045736;28;20017;-47
2021/09/05 05:31:30;;;;;;;14.43;5.70;;;27.40;89.60;;;;;;5045575;28;20068;-53
2021/09/05 05:33:57;;;;;;;13.70;5.35;;;27.40;89.50;;;;;;5045696;28;20021;-48
2021/09/05 05:36:23;;;;;;;10.40;5.90;;;27.40;89.60;;;;;;5046060;28;20060;-53
2021/09/05 05:38:50;;;;;;;13.13;5.40;;;27.40;89.80;;;;;;5045386;28;20347;-58
2021/09/05 05:41:19;;;;;;;14.02;5.75;;;27.40;89.70;;;;;;5046060;28;20237;-55
2021/09/05 05:43:45;;;;;;;10.65;4.95;;;27.40;89.80;;;;;;5045417;28;20127;-47
2021/09/05 05:46:12;;;;;;;10.70;4.97;;;27.30;89.80;;;;;;5045186;28;20096;-54
2021/09/05 05:48:39;;;;;;;10.98;5.78;;;27.40;89.90;;;;;;5045384;28;20021;-59
2021/09/05 05:51:05;;;;;;;14.75;7.00;;;27.40;89.60;;;;;;5045711;28;20055;-48
2021/09/05 05:53:32;;;;;;;13.70;8.88;;;27.30;89.60;;;;;;5045118;28;20017;-47
2021/09/05 05:55:58;;;;;;;14.93;9.77;;;27.40;89.80;;;;;;5045623;28;20033;-47
2021/09/05 05:58:25;;;;;;;17.92;9.40;;;27.40;89.70;;;;;;5045170;28;20040;-49
2021/09/05 06:00:51;;;;;;;14.90;8.68;;;27.30;89.70;;;;;;5045343;28;20029;-63
2021/09/05 06:03:18;;;;;;;11.93;8.90;;;27.30;89.60;;;;;;5045057;28;20025;-54
2021/09/05 06:05:45;;;;;;;14.65;8.75;;;27.30;89.60;;;;;;5045277;28;20092;-53
2021/09/05 06:08:11;;;;;;;20.98;10.18;;;27.30;89.50;;;;;;5044890;28;20072;-56
2021/09/05 06:10:38;;;;;;;14.52;8.43;;;27.30;89.50;;;;;;5045236;28;20229;-48
2021/09/05 06:13:04;;;;;;;10.77;6.97;;;27.30;89.80;;;;;;5044842;28;20077;-48
2021/09/05 06:15:31;;;;;;;10.85;6.47;;;27.20;89.90;;;;;;5044702;28;20062;-53
2021/09/05 06:17:58;;;;;;;10.93;5.43;;;27.20;89.70;;;;;;5044818;28;20064;-51
2021/09/05 06:20:25;;;;;;;9.07;4.78;;;27.20;89.70;;;;;;5044952;28;20044;-46
2021/09/05 06:22:51;;;;;;;7.35;4.47;;;27.30;90.00;;;;;;5043776;28;20021;-53
2021/09/05 06:25:18;;;;;;;10.18;4.50;;;27.20;89.80;;;;;;5044764;28;20029;-59
2021/09/05 06:27:44;;;;;;;6.88;4.18;;;27.20;89.80;;;;;;5044587;28;20262;-63
2021/09/05 06:30:12;;;;;;;7.50;3.55;;;27.20;89.60;;;;;;5044476;28;20022;-51
2021/09/05 06:32:38;;;;;;;3.85;3.25;;;27.20;89.40;;;;;;5044449;28;20020;-59
2021/09/05 06:35:06;;;;;;;3.80;3.20;;;27.20;89.30;;;;;;5044681;28;20029;-53
2021/09/05 06:37:32;;;;;;;6.72;3.40;;;27.20;89.40;;;;;;5044432;28;20021;-53
2021/09/05 06:39:59;;;;;;;5.43;2.88;;;27.20;89.40;;;;;;5044436;28;20044;-51
2021/09/05 06:42:25;;;;;;;5.40;3.22;;;27.20;89.30;;;;;;5044397;28;20079;-50
2021/09/05 06:44:52;;;;;;;8.15;2.65;;;27.20;89.10;;;;;;5044352;28;20033;-51
2021/09/05 06:47:18;;;;;;;8.85;3.08;;;27.20;89.00;;;;;;5044158;28;20013;-54
2021/09/05 06:49:45;;;;;;;4.18;2.95;;;27.20;89.00;;;;;;5044312;28;20025;-53
2021/09/05 06:52:11;;;;;;;10.00;3.33;;;27.20;89.10;;;;;;5044165;28;20213;-48
2021/09/05 06:54:38;;;;;;;6.25;2.85;;;27.20;89.00;;;;;;5044140;28;20021;-50
2021/09/05 06:57:06;;;;;;;9.93;3.13;;;27.20;89.00;;;;;;5044254;28;20080;-60
2021/09/05 06:59:33;;;;;;;6.10;2.70;;;27.20;89.00;;;;;;5044171;28;20032;-50
2021/09/05 07:02:00;;;;;;;6.55;2.78;;;27.20;89.00;;;;;;5043902;28;20017;-51
2021/09/05 07:04:27;;;;;;;6.68;2.60;;;27.20;89.00;;;;;;5044028;28;20202;-50
2021/09/05 07:06:53;;;;;;;5.05;2.90;;;27.20;89.00;;;;;;5043927;28;20025;-55
2021/09/05 07:09:20;;;;;;;8.13;2.60;;;27.10;88.90;;;;;;5043820;28;20017;-52
2021/09/05 07:11:46;;;;;;;5.47;3.08;;;27.20;88.90;;;;;;5043855;28;20013;-49
2021/09/05 07:14:13;;;;;;;6.65;2.70;;;27.20;88.90;;;;;;5043851;28;20019;-49
2021/09/05 07:16:39;;;;;;;4.30;2.85;;;27.10;89.00;;;;;;5043659;28;20053;-49
2021/09/05 07:19:06;;;;;;;6.13;2.60;;;27.10;89.00;;;;;;5043765;28;20033;-48
2021/09/05 07:21:33;;;;;;;5.25;2.80;;;27.10;88.90;;;;;;5043886;28;20017;-49
2021/09/05 07:24:00;;;;;;;5.72;2.80;;;27.10;88.90;;;;;;5043651;28;20079;-54
2021/09/05 07:26:26;;;;;;;6.57;3.00;;;27.10;88.90;;;;;;5044239;28;20205;-48
2021/09/05 07:28:53;;;;;;;5.78;3.10;;;27.10;88.90;;;;;;5043861;28;20014;-52
2021/09/05 07:31:19;;;;;;;5.20;3.03;;;27.10;88.90;;;;;;5044147;28;20036;-52
2021/09/05 07:33:46;;;;;;;4.32;2.90;;;27.10;89.00;;;;;;5045008;28;20021;-51
2021/09/05 07:36:13;;;;;;;7.00;2.78;;;27.10;88.90;;;;;;5048267;28;20053;-54
2021/09/05 07:38:39;;;;;;;6.18;2.47;;;27.10;88.90;;;;;;5047809;28;20026;-49
2021/09/05 07:41:06;;;;;;;7.75;3.10;;;27.10;88.80;;;;;;5048129;28;20072;-54
2021/09/05 07:43:32;;;;;;;5.90;2.70;;;27.10;88.80;;;;;;5047814;28;20020;-48
2021/09/05 07:46:00;;;;;;;4.20;2.60;;;27.10;88.80;;;;;;5048011;28;20033;-47
2021/09/05 07:48:26;;;;;;;8.25;2.78;;;27.10;88.80;;;;;;5047533;28;20017;-47
2021/09/05 07:50:53;;;;;;;9.57;2.90;;;27.00;88.90;;;;;;5048107;28;20025;-50
2021/09/05 07:53:20;;;;;;;5.22;2.90;;;27.00;88.70;;;;;;5047506;28;20025;-52
2021/09/05 07:55:46;;;;;;;5.00;2.88;;;27.10;88.80;;;;;;5047667;28;20029;-48
2021/09/05 07:58:13;;;;;;;4.80;2.92;;;27.10;88.80;;;;;;5047531;28;20075;-57
2021/09/05 08:00:39;;;;;;;5.68;2.90;;;27.00;88.70;;;;;;5047759;28;20210;-56
2021/09/05 08:03:06;;;;;;;3.75;2.60;;;27.00;88.80;;;;;;5047206;28;20252;-52
2021/09/05 08:05:33;;;;;;;8.65;2.75;;;27.00;88.80;;;;;;5047512;28;20029;-47
2021/09/05 08:07:59;;;;;;;6.90;2.95;;;27.00;88.80;;;;;;5047283;28;20054;-47
2021/09/05 08:10:26;;;;;;;6.57;2.60;;;27.00;88.70;;;;;;5047370;28;20029;-51
2021/09/05 08:12:52;;;;;;;5.50;2.65;;;27.00;89.00;;;;;;5047184;28;20013;-51
2021/09/05 08:15:19;;;;;;;7.43;2.60;;;26.90;89.00;;;;;;5047034;28;20277;-51
2021/09/05 08:17:46;;;;;;;9.00;2.67;;;26.90;88.80;;;;;;5046941;28;20021;-50
2021/09/05 08:20:13;;;;;;;9.70;3.03;;;26.90;88.70;;;;;;5047206;28;20037;-46
2021/09/05 08:22:40;;;;;;;9.43;3.05;;;26.90;88.80;;;;;;5047056;28;20241;-47
2021/09/05 08:25:07;;;;;;;8.10;2.90;;;27.00;89.10;;;;;;5046881;28;20033;-49
2021/09/05 08:27:34;;;;;;;8.02;2.80;;;27.00;89.10;;;;;;5046872;28;20027;-48
2021/09/05 08:30:00;;;;;;;8.63;2.67;;;27.00;89.30;;;;;;5046999;28;20321;-47
2021/09/05 08:32:27;;;;;;;9.38;3.15;;;26.90;89.50;;;;;;5046713;28;20076;-46
2021/09/05 08:34:53;;;;;;;14.00;3.15;;;26.90;89.40;;;;;;5046853;28;20036;-52
2021/09/05 08:37:20;;;;;;;10.30;2.65;;;26.90;89.30;;;;;;5046683;28;20025;-47
2021/09/05 08:39:47;;;;;;;8.05;2.53;;;26.90;89.30;;;;;;5046576;28;20194;-51
2021/09/05 08:42:15;;;;;;;7.57;3.00;;;26.90;89.60;;;;;;5046628;28;20018;-52
2021/09/05 08:44:41;;;;;;;9.43;3.00;;;26.90;89.70;;;;;;5046082;28;20025;-51
2021/09/05 08:47:08;;;;;;;7.47;2.97;;;26.90;89.70;;;;;;5045907;28;20021;-55
2021/09/05 08:49:37;;;;;;;6.95;2.97;;;26.90;89.70;;;;;;5046594;28;20233;-55
2021/09/05 08:52:07;;;;;;;9.63;3.25;;;26.90;89.90;;;;;;5046466;28;20021;-51
2021/09/05 08:54:34;;;;;;;13.98;3.30;;;26.90;90.00;;;;;;5046299;28;20040;-50
2021/09/05 08:57:02;;;;;;;10.88;3.28;;;26.90;90.10;;;;;;5046440;28;20032;-48
2021/09/05 08:59:29;;;;;;;12.68;3.72;;;26.90;90.20;;;;;;5046226;28;20021;-52
2021/09/05 09:01:59;;;;;;;14.82;3.67;;;26.80;90.20;;;;;;5046130;28;20025;-51
2021/09/05 09:04:38;;;;;;;16.10;3.50;;;26.80;90.30;;;;;;5046162;28;20028;-47
2021/09/05 09:07:13;;;;;;;8.50;3.20;;;26.80;90.40;;;;;;5046025;28;20088;-51
2021/09/05 09:10:07;;;;;;;16.85;3.88;;;26.80;90.50;;;;;;5046206;28;20021;-49
2021/09/05 09:12:42;;;;;;;16.10;3.70;;;26.90;90.60;;;;;;5045029;28;20040;-47
2021/09/05 09:15:31;;;;;;;13.07;3.83;;;26.80;90.60;;;;;;5045928;28;20045;-54
2021/09/05 09:18:03;;;;;;;8.88;3.33;;;26.80;90.70;;;;;;5045936;28;20021;-53
2021/09/05 09:20:50;;;;;;;13.35;3.63;;;26.80;90.80;;;;;;5046230;28;20093;-47
2021/09/05 09:23:20;;;;;;;15.90;3.45;;;26.80;90.80;;;;;;5045914;28;20022;-50
2021/09/05 09:26:08;;;;;;;10.63;3.35;;;26.80;90.80;;;;;;5046114;28;20328;-47
2021/09/05 09:28:39;;;;;;;9.43;3.45;;;26.80;90.80;;;;;;5045806;28;20067;-48
2021/09/05 09:31:24;;;;;;;14.68;3.30;;;26.80;91.00;;;;;;5046233;28;20096;-50
2021/09/05 09:33:56;;;;;;;11.98;3.85;;;26.80;91.10;;;;;;5045640;28;20018;-51
2021/09/05 09:36:29;;;;;;;10.00;3.78;;;26.80;91.10;;;;;;5046135;28;20052;-52
2021/09/05 09:39:07;;;;;;;9.65;3.80;;;26.80;91.10;;;;;;5045485;28;20109;-50
2021/09/05 09:41:40;;;;;;;11.95;3.80;;;26.70;91.20;;;;;;5045517;28;20033;-57
2021/09/05 09:44:09;;;;;;;19.33;4.50;;;26.70;91.20;;;;;;5045283;28;20053;-55
2021/09/05 09:46:38;;;;;;;30.02;4.60;;;26.70;91.30;;;;;;5045360;28;20041;-51
2021/09/05 09:49:10;;;;;;;27.00;4.55;;;26.80;91.40;;;;;;5045343;28;20009;-50
2021/09/05 09:51:38;;;;;;;23.30;4.90;;;26.70;91.40;;;;;;5045356;28;20028;-48
2021/09/05 09:54:05;;;;;;;30.83;5.93;;;26.70;91.50;;;;;;5045180;28;20096;-50
2021/09/05 09:56:34;;;;;;;27.92;5.18;;;26.70;91.60;;;;;;5045018;28;20021;-53
2021/09/05 09:59:03;;;;;;;22.27;4.45;;;26.70;91.60;;;;;;5045197;28;20026;-47
2021/09/05 10:01:31;;;;;;;16.30;4.00;;;26.70;91.60;;;;;;5045126;28;20033;-56
2021/09/05 10:04:00;;;;;;;15.18;4.20;;;26.70;91.60;;;;;;5044984;28;20044;-49
2021/09/05 10:06:32;;;;;;;13.38;4.45;;;26.70;91.60;;;;;;5045172;28;20029;-49
2021/09/05 10:09:03;;;;;;;14.60;3.60;;;26.80;91.70;;;;;;5045029;28;20014;-54
2021/09/05 10:11:30;;;;;;;23.50;4.47;;;26.70;91.70;;;;;;5044785;28;20025;-46
2021/09/05 10:14:00;;;;;;;22.38;4.85;;;26.70;91.70;;;;;;5044907;28;20059;-51
2021/09/05 10:16:27;;;;;;;16.35;4.78;;;26.70;91.70;;;;;;5044766;28;20081;-50
2021/09/05 10:18:57;;;;;;;16.35;4.50;;;26.70;91.70;;;;;;5044962;28;20249;-45
2021/09/05 10:21:24;;;;;;;16.70;4.68;;;26.70;91.80;;;;;;5045192;28;20071;-48
2021/09/05 10:23:56;;;;;;;21.88;4.45;;;26.70;91.80;;;;;;5044693;28;20309;-50
2021/09/05 10:26:25;;;;;;;10.43;4.13;;;26.70;91.80;;;;;;5045106;28;20108;-50
2021/09/05 10:28:55;;;;;;;12.70;4.13;;;26.70;91.90;;;;;;5044766;28;20076;-47
2021/09/05 10:31:26;;;;;;;11.57;4.00;;;26.70;91.90;;;;;;5044898;28;20025;-49
2021/09/05 10:33:54;;;;;;;12.98;4.38;;;26.70;92.00;;;;;;5044644;28;20049;-51
2021/09/05 10:36:23;;;;;;;9.98;4.68;;;26.70;92.00;;;;;;5044950;28;20060;-50
2021/09/05 10:38:51;;;;;;;7.78;4.30;;;26.80;92.00;;;;;;5044316;28;20076;-49
2021/09/05 10:41:21;;;;;;;11.85;5.22;;;26.70;92.00;;;;;;5044910;28;20040;-50
2021/09/05 10:43:53;;;;;;;16.55;4.80;;;26.70;91.90;;;;;;5044469;28;20024;-51
2021/09/05 10:46:21;;;;;;;;;;;26.70;92.00;;;;;;5045071;28;20378;-61
2021/09/05 10:48:58;;;;;;;12.27;5.20;;;26.70;92.10;;;;;;5044234;28;20105;-51
2021/09/05 10:51:35;;;;;;;15.48;5.35;;;26.70;92.10;;;;;;5044583;28;20032;-48
2021/09/05 10:54:06;;;;;;;11.15;5.40;;;26.70;92.20;;;;;;5044195;28;20369;-50
2021/09/05 10:56:40;;;;;;;10.85;5.40;;;26.70;92.10;;;;;;5044074;28;20061;-55
2021/09/05 10:59:08;;;;;;;12.45;4.75;;;26.70;92.10;;;;;;5044043;28;20014;-54
2021/09/05 11:01:48;;;;;;;9.02;5.00;;;26.70;92.20;;;;;;5044089;28;20021;-46
2021/09/05 11:04:15;;;;;;;11.10;4.30;;;26.70;92.20;;;;;;5044044;28;20025;-53
2021/09/05 11:06:56;;;;;;;8.43;4.45;;;26.70;92.20;;;;;;5044115;28;20319;-47
2021/09/05 11:09:23;;;;;;;10.30;4.32;;;26.70;92.20;;;;;;5043284;28;20017;-48
2021/09/05 11:12:07;;;;;;;13.07;4.80;;;26.70;92.20;;;;;;5043928;28;20018;-45
2021/09/05 11:17:10;;;;;;;10.10;4.40;;;26.70;92.20;;;;;;5043818;28;20072;-52
2021/09/05 11:19:55;;;;;;;8.60;3.90;;;26.80;92.20;;;;;;5043950;28;20371;-55
2021/09/05 11:22:41;;;;;;;9.70;4.30;;;26.70;92.20;;;;;;5043847;28;20057;-54
2021/09/05 11:25:16;;;;;;;7.68;4.65;;;26.70;92.20;;;;;;5043735;28;20253;-50
2021/09/05 11:27:50;;;;;;;6.70;4.65;;;26.70;92.20;;;;;;5043965;28;20028;-50
2021/09/05 11:30:17;;;;;;;9.20;5.43;;;26.70;92.30;;;;;;5043668;28;20036;-49
2021/09/05 11:32:44;;;;;;;7.60;5.38;;;26.70;92.30;;;;;;5043694;28;20024;-48
2021/09/05 11:35:12;;;;;;;13.50;5.63;;;26.80;92.40;;;;;;5043900;28;20032;-47
2021/09/05 11:37:45;;;;;;;9.30;5.25;;;26.70;92.30;;;;;;5043578;28;20096;-52
2021/09/05 11:40:12;;;;;;;;;;;26.70;92.30;;;;;;5044242;28;20030;-54
2021/09/05 11:42:51;;;;;;;8.35;5.00;;;26.70;92.40;;;;;;5043936;28;19901;-55
2021/09/05 11:45:20;;;;;;;14.25;5.18;;;26.70;92.40;;;;;;5043775;28;20354;-48
2021/09/05 11:47:47;;;;;;;12.63;5.50;;;26.70;92.40;;;;;;5043573;28;20018;-51
2021/09/05 11:50:15;;;;;;;7.70;5.00;;;26.70;92.50;;;;;;5043578;28;20033;-50
2021/09/05 11:52:44;;;;;;;12.38;5.57;;;26.70;92.40;;;;;;5043855;28;20317;-49
2021/09/05 11:55:16;;;;;;;10.93;5.18;;;26.70;92.50;;;;;;5043673;28;20061;-50
2021/09/05 11:57:55;;;;;;;;;;;26.70;92.50;;;;;;5043816;28;20021;-50
2021/09/05 12:00:36;;;;;;;13.77;5.22;;;26.80;92.50;;;;;;5043782;28;19951;-47
2021/09/05 12:03:07;;;;;;;8.25;4.90;;;26.80;92.60;;;;;;5043350;28;20376;-52
2021/09/05 12:05:35;;;;;;;11.57;5.17;;;26.80;92.50;;;;;;5043791;28;20044;-45
2021/09/05 12:08:03;;;;;;;12.32;4.55;;;26.80;92.50;;;;;;5043467;28;20064;-48
2021/09/05 12:10:32;;;;;;;10.35;4.93;;;26.80;92.50;;;;;;5043677;28;20306;-51
2021/09/05 12:13:09;;;;;;;10.52;5.32;;;26.80;92.50;;;;;;5043460;28;20340;-46
2021/09/05 12:15:45;;;;;;;10.75;5.32;;;26.80;92.50;;;;;;5042975;28;20081;-53
2021/09/05 12:18:23;;;;;;;14.35;5.47;;;26.80;92.40;;;;;;5043219;28;20044;-57
2021/09/05 12:20:52;;;;;;;13.50;5.35;;;26.80;92.40;;;;;;5045014;28;20039;-60
2021/09/05 12:23:21;;;;;;;12.82;5.38;;;26.80;92.20;;;;;;5046899;28;20032;-58
2021/09/05 12:25:48;;;;;;;14.60;5.20;;;26.90;92.20;;;;;;5047214;28;20074;-49
2021/09/05 12:28:24;;;;;;;16.27;4.70;;;26.90;92.10;;;;;;5046598;28;20021;-57
2021/09/05 12:30:55;;;;;;;8.65;4.97;;;26.90;92.10;;;;;;5047380;28;20180;-51
2021/09/05 12:33:32;;;;;;;9.20;4.03;;;26.90;92.10;;;;;;5045433;28;20024;-53
2021/09/05 12:36:11;;;;;;;10.23;4.40;;;26.90;92.10;;;;;;5047123;28;20035;-48
2021/09/05 12:38:38;;;;;;;8.95;4.85;;;26.90;92.10;;;;;;5046592;28;20224;-59
2021/09/05 12:41:15;;;;;;;16.15;5.55;;;26.90;92.00;;;;;;5047172;28;20038;-49
2021/09/05 12:43:45;;;;;;;7.03;5.10;;;26.90;92.10;;;;;;5046621;28;20029;-49
2021/09/05 12:46:13;;;;;;;10.90;4.90;;;27.00;91.90;;;;;;5046672;28;20025;-50
2021/09/05 12:48:47;;;;;;;11.70;7.75;;;27.10;92.00;;;;;;5046768;28;20072;-49
2021/09/05 12:51:17;;;;;;;18.00;9.30;;;27.10;92.00;;;;;;5046842;28;20040;-48